Terminal Aerodrome Forecast
Issued by NWS

Current Version | Previous Version | Text Only | Print | Product List | Glossary On
Versions: 1 2 3 4 5 6 7 8 9 10 11 12
000
FTUS45 KTFX 182300
TAFCTB
TAF
KCTB 182333Z 1900/1924 25022G30KT P6SM SCT060 BKN120
     FM190200 25012KT P6SM BKN150
     FM191500 28018G25KT P6SM BKN150=

USA.gov is the U.S. government's official web portal to all federal, state and local government web resources and services.